首页
METAR-TAF:

METAR-TAF

机场 :

合肥新桥国际机场

合肥, 中华人民共和国

纬度: 31-52N, 经度: 117-14E, 海拔: 36米

当前天气观测

该预报发布于59分钟前的01:00 UTC
风速6节,风向
温度 20°C
湿度 94%
气压 1008 hPa
能見度: 4000
散云层高于700英尺
多云层高于4000英尺
轻雾

METAR: ZSOF 260100Z 36003MPS 4000 BR SCT007 BKN040 20/19 Q1008 NOSIG

时间: 09:59 (01:59 UTC)

预报

该预报发布于6小时和45分钟前的19:14 UTC
预报有效从26日的 00点(UTC)到 26日的 24点(UTC)
风速6节,风向北转东北
能見度: 2400
多云层高于600英尺
阴天层高于3300英尺
轻雾
成为
从 26日的 00点(UTC)到 26日的 01点(UTC)
能見度: 3500
轻雾
成为
从 26日的 03点(UTC)到 26日的 04点(UTC)
多云层高于1200英尺
阴天层高于3300英尺
成为
从 26日的 06点(UTC)到 26日的 07点(UTC)
多云层高于2000英尺
成为
从 26日的 17点(UTC)到 26日的 18点(UTC)
能見度: 2000
轻雾

TAF: ZSOF 251914Z 2600/2624 03003MPS 2400 BR BKN006 OVC033 TX25/2607Z TN19/2622Z BECMG 2600/2601 3500 BR BECMG 2603/2604 BKN012 OVC033 BECMG 2606/2607 BKN020 BECMG 2617/2618 2000 BR

超过4000个机场的气象观测和天气预报(METAR&TAF报告)。

可查询的气象台以黄色和红色小点在地图上表示。

将鼠标移到小点上方,可查看气象台名称。

然后点击查看天气观测和预报。

如需切换地图:点击带黑十字的绿色按钮放大地图;点击带横线的绿色按钮缩小地图;或者点击绿色箭头查看邻近地区的地图。


METAR-TAF: